sensor_id;sensor_type;location;lat;lon;timestamp;pressure;altitude;pressure_sealevel;temperature;humidity
55191;BME280;41070;50.360;18.742;2023-12-29T00:06:29;98606.91;;;5.65;94.43
55191;BME280;41070;50.360;18.742;2023-12-29T00:09:41;98600.66;;;5.67;94.52
55191;BME280;41070;50.360;18.742;2023-12-29T00:12:27;98594.48;;;5.67;94.51
55191;BME280;41070;50.360;18.742;2023-12-29T00:15:46;98591.20;;;5.69;94.36
55191;BME280;41070;50.360;18.742;2023-12-29T00:18:47;98593.34;;;5.69;94.54
55191;BME280;41070;50.360;18.742;2023-12-29T00:21:48;98595.40;;;5.69;94.45
55191;BME280;41070;50.360;18.742;2023-12-29T00:28:02;98586.09;;;5.75;94.32
55191;BME280;41070;50.360;18.742;2023-12-29T00:31:35;98579.27;;;5.73;94.46
55191;BME280;41070;50.360;18.742;2023-12-29T00:34:25;98574.07;;;5.74;94.52
55191;BME280;41070;50.360;18.742;2023-12-29T00:37:34;98573.98;;;5.76;94.30
55191;BME280;41070;50.360;18.742;2023-12-29T00:40:44;98574.27;;;5.77;94.61
55191;BME280;41070;50.360;18.742;2023-12-29T00:43:50;98579.04;;;5.77;94.39
55191;BME280;41070;50.360;18.742;2023-12-29T00:47:00;98577.70;;;5.77;94.67
55191;BME280;41070;50.360;18.742;2023-12-29T00:50:08;98575.05;;;5.79;94.68
55191;BME280;41070;50.360;18.742;2023-12-29T00:53:16;98576.70;;;5.78;94.60
55191;BME280;41070;50.360;18.742;2023-12-29T00:56:24;98579.33;;;5.80;94.58
55191;BME280;41070;50.360;18.742;2023-12-29T00:59:36;98573.98;;;5.80;94.70
55191;BME280;41070;50.360;18.742;2023-12-29T01:02:41;98574.85;;;5.80;94.65
55191;BME280;41070;50.360;18.742;2023-12-29T01:09:06;98566.11;;;5.76;94.93
55191;BME280;41070;50.360;18.742;2023-12-29T01:12:12;98578.53;;;5.73;94.78
55191;BME280;41070;50.360;18.742;2023-12-29T01:15:22;98574.59;;;5.72;94.83
55191;BME280;41070;50.360;18.742;2023-12-29T01:18:32;98573.19;;;5.69;94.97
55191;BME280;41070;50.360;18.742;2023-12-29T01:21:41;98568.06;;;5.68;95.35
55191;BME280;41070;50.360;18.742;2023-12-29T01:24:50;98559.38;;;5.67;95.34
55191;BME280;41070;50.360;18.742;2023-12-29T01:27:58;98560.56;;;5.64;95.38
55191;BME280;41070;50.360;18.742;2023-12-29T01:31:07;98562.86;;;5.61;95.30
55191;BME280;41070;50.360;18.742;2023-12-29T01:34:17;98563.39;;;5.58;95.35
55191;BME280;41070;50.360;18.742;2023-12-29T01:37:25;98559.16;;;5.53;95.06
55191;BME280;41070;50.360;18.742;2023-12-29T01:40:41;98548.10;;;5.48;95.21
55191;BME280;41070;50.360;18.742;2023-12-29T01:46:51;98553.85;;;5.40;95.31
55191;BME280;41070;50.360;18.742;2023-12-29T01:53:53;98528.98;;;5.38;95.73
55191;BME280;41070;50.360;18.742;2023-12-29T01:57:00;98531.52;;;5.32;95.75
55191;BME280;41070;50.360;18.742;2023-12-29T02:00:06;98531.01;;;5.27;95.90
55191;BME280;41070;50.360;18.742;2023-12-29T02:03:15;98530.23;;;5.19;95.82
55191;BME280;41070;50.360;18.742;2023-12-29T02:06:23;98527.96;;;5.12;96.01
55191;BME280;41070;50.360;18.742;2023-12-29T02:09:29;98523.59;;;5.09;96.16
55191;BME280;41070;50.360;18.742;2023-12-29T02:12:36;98523.67;;;5.06;96.27
55191;BME280;41070;50.360;18.742;2023-12-29T02:15:43;98525.97;;;5.04;96.25
55191;BME280;41070;50.360;18.742;2023-12-29T02:18:51;98517.16;;;5.00;96.68
55191;BME280;41070;50.360;18.742;2023-12-29T02:21:39;98520.32;;;4.97;96.69
55191;BME280;41070;50.360;18.742;2023-12-29T02:24:48;98521.71;;;4.94;96.69
55191;BME280;41070;50.360;18.742;2023-12-29T02:34:26;98508.26;;;4.90;96.75
55191;BME280;41070;50.360;18.742;2023-12-29T02:37:33;98503.42;;;4.88;96.43
55191;BME280;41070;50.360;18.742;2023-12-29T02:40:40;98501.44;;;4.87;96.69
55191;BME280;41070;50.360;18.742;2023-12-29T02:43:48;98507.16;;;4.87;96.64
55191;BME280;41070;50.360;18.742;2023-12-29T02:46:55;98497.58;;;4.87;96.60
55191;BME280;41070;50.360;18.742;2023-12-29T02:50:03;98488.88;;;4.87;96.53
55191;BME280;41070;50.360;18.742;2023-12-29T02:53:10;98485.93;;;4.86;96.35
55191;BME280;41070;50.360;18.742;2023-12-29T02:59:54;98482.83;;;4.87;96.27
55191;BME280;41070;50.360;18.742;2023-12-29T03:03:42;98480.88;;;4.84;96.10
55191;BME280;41070;50.360;18.742;2023-12-29T03:06:54;98479.95;;;4.84;96.12
55191;BME280;41070;50.360;18.742;2023-12-29T03:10:03;98472.98;;;4.83;95.89
55191;BME280;41070;50.360;18.742;2023-12-29T03:13:12;98475.39;;;4.82;95.87
55191;BME280;41070;50.360;18.742;2023-12-29T03:16:21;98477.84;;;4.81;95.86
55191;BME280;41070;50.360;18.742;2023-12-29T03:19:29;98478.19;;;4.79;95.74
55191;BME280;41070;50.360;18.742;2023-12-29T03:22:38;98468.81;;;4.76;95.72
55191;BME280;41070;50.360;18.742;2023-12-29T03:25:46;98468.74;;;4.72;95.61
55191;BME280;41070;50.360;18.742;2023-12-29T03:28:55;98476.27;;;4.67;95.32
55191;BME280;41070;50.360;18.742;2023-12-29T03:32:04;98473.09;;;4.58;95.09
55191;BME280;41070;50.360;18.742;2023-12-29T03:35:34;98457.59;;;4.53;95.18
55191;BME280;41070;50.360;18.742;2023-12-29T03:38:24;98451.90;;;4.52;95.41
55191;BME280;41070;50.360;18.742;2023-12-29T03:41:33;98445.96;;;4.47;95.35
55191;BME280;41070;50.360;18.742;2023-12-29T03:44:40;98447.17;;;4.44;95.46
55191;BME280;41070;50.360;18.742;2023-12-29T03:47:50;98448.01;;;4.45;95.33
55191;BME280;41070;50.360;18.742;2023-12-29T03:50:58;98458.16;;;4.45;95.52
55191;BME280;41070;50.360;18.742;2023-12-29T03:54:06;98447.00;;;4.44;95.31
55191;BME280;41070;50.360;18.742;2023-12-29T03:57:15;98443.23;;;4.38;95.12
55191;BME280;41070;50.360;18.742;2023-12-29T04:00:23;98444.86;;;4.32;95.01
55191;BME280;41070;50.360;18.742;2023-12-29T04:03:11;98436.57;;;4.27;95.24
55191;BME280;41070;50.360;18.742;2023-12-29T04:06:20;98440.64;;;4.24;95.12
55191;BME280;41070;50.360;18.742;2023-12-29T04:09:28;98443.27;;;4.22;95.19
55191;BME280;41070;50.360;18.742;2023-12-29T04:12:36;98448.02;;;4.19;95.12
55191;BME280;41070;50.360;18.742;2023-12-29T04:15:25;98444.31;;;4.17;95.31
55191;BME280;41070;50.360;18.742;2023-12-29T04:18:33;98447.48;;;4.15;95.24
55191;BME280;41070;50.360;18.742;2023-12-29T04:24:50;98427.79;;;4.21;95.17
55191;BME280;41070;50.360;18.742;2023-12-29T04:27:58;98424.56;;;4.23;95.26
55191;BME280;41070;50.360;18.742;2023-12-29T04:31:08;98427.29;;;4.26;95.26
55191;BME280;41070;50.360;18.742;2023-12-29T04:34:17;98423.84;;;4.28;95.15
55191;BME280;41070;50.360;18.742;2023-12-29T04:37:25;98423.31;;;4.30;94.86
55191;BME280;41070;50.360;18.742;2023-12-29T04:40:33;98422.48;;;4.33;94.90
55191;BME280;41070;50.360;18.742;2023-12-29T04:43:41;98418.55;;;4.36;94.93
55191;BME280;41070;50.360;18.742;2023-12-29T04:46:51;98406.23;;;4.40;94.72
55191;BME280;41070;50.360;18.742;2023-12-29T04:53:14;98428.03;;;4.45;94.58
55191;BME280;41070;50.360;18.742;2023-12-29T04:56:24;98432.90;;;4.47;94.52
55191;BME280;41070;50.360;18.742;2023-12-29T04:59:33;98423.27;;;4.48;94.49
55191;BME280;41070;50.360;18.742;2023-12-29T05:02:41;98423.89;;;4.51;94.47
55191;BME280;41070;50.360;18.742;2023-12-29T05:05:50;98431.69;;;4.54;94.27
55191;BME280;41070;50.360;18.742;2023-12-29T05:08:59;98438.14;;;4.57;94.37
55191;BME280;41070;50.360;18.742;2023-12-29T05:12:08;98436.41;;;4.60;94.35
55191;BME280;41070;50.360;18.742;2023-12-29T05:15:16;98424.57;;;4.61;94.37
55191;BME280;41070;50.360;18.742;2023-12-29T05:18:24;98428.25;;;4.62;94.18
55191;BME280;41070;50.360;18.742;2023-12-29T05:21:58;98426.14;;;4.64;94.34
55191;BME280;41070;50.360;18.742;2023-12-29T05:25:06;98433.85;;;4.67;94.05
55191;BME280;41070;50.360;18.742;2023-12-29T05:28:15;98427.78;;;4.70;94.39
55191;BME280;41070;50.360;18.742;2023-12-29T05:31:23;98422.80;;;4.73;94.31
55191;BME280;41070;50.360;18.742;2023-12-29T05:34:32;98414.92;;;4.77;94.28
55191;BME280;41070;50.360;18.742;2023-12-29T05:37:40;98414.67;;;4.80;94.15
55191;BME280;41070;50.360;18.742;2023-12-29T05:40:28;98426.48;;;4.83;94.31
55191;BME280;41070;50.360;18.742;2023-12-29T05:43:37;98428.27;;;4.85;94.11
55191;BME280;41070;50.360;18.742;2023-12-29T05:46:25;98428.25;;;4.89;94.18
55191;BME280;41070;50.360;18.742;2023-12-29T05:49:34;98423.62;;;4.94;94.25
55191;BME280;41070;50.360;18.742;2023-12-29T05:55:48;98406.42;;;5.00;93.86
55191;BME280;41070;50.360;18.742;2023-12-29T05:58:57;98396.45;;;5.02;93.67
55191;BME280;41070;50.360;18.742;2023-12-29T06:02:05;98401.08;;;5.05;93.63
55191;BME280;41070;50.360;18.742;2023-12-29T06:05:13;98411.33;;;5.09;93.47
55191;BME280;41070;50.360;18.742;2023-12-29T06:08:28;98415.34;;;5.12;93.42
55191;BME280;41070;50.360;18.742;2023-12-29T06:11:36;98408.20;;;5.16;93.51
55191;BME280;41070;50.360;18.742;2023-12-29T06:14:46;98412.48;;;5.18;93.30
55191;BME280;41070;50.360;18.742;2023-12-29T06:17:54;98411.77;;;5.19;93.26
55191;BME280;41070;50.360;18.742;2023-12-29T06:21:02;98404.05;;;5.19;93.31
55191;BME280;41070;50.360;18.742;2023-12-29T06:24:06;98405.66;;;5.18;93.20
55191;BME280;41070;50.360;18.742;2023-12-29T06:27:16;98397.37;;;5.14;92.99
55191;BME280;41070;50.360;18.742;2023-12-29T06:30:24;98393.95;;;5.15;93.15
55191;BME280;41070;50.360;18.742;2023-12-29T06:33:33;98392.00;;;5.14;93.06
55191;BME280;41070;50.360;18.742;2023-12-29T06:36:43;98383.80;;;5.13;93.06
55191;BME280;41070;50.360;18.742;2023-12-29T06:39:51;98399.87;;;5.10;93.11
55191;BME280;41070;50.360;18.742;2023-12-29T06:46:12;98407.63;;;5.09;93.23
55191;BME280;41070;50.360;18.742;2023-12-29T06:49:25;98407.09;;;5.09;93.05
55191;BME280;41070;50.360;18.742;2023-12-29T06:52:33;98411.01;;;5.09;93.24
55191;BME280;41070;50.360;18.742;2023-12-29T06:55:41;98405.89;;;5.07;93.10
55191;BME280;41070;50.360;18.742;2023-12-29T06:58:50;98401.33;;;5.06;93.28
55191;BME280;41070;50.360;18.742;2023-12-29T07:01:38;98405.36;;;5.08;93.47
55191;BME280;41070;50.360;18.742;2023-12-29T07:04:49;98407.05;;;5.08;93.17
55191;BME280;41070;50.360;18.742;2023-12-29T07:07:58;98405.95;;;5.11;93.53
55191;BME280;41070;50.360;18.742;2023-12-29T07:11:09;98411.06;;;5.13;93.69
55191;BME280;41070;50.360;18.742;2023-12-29T07:14:14;98411.39;;;5.16;93.32
55191;BME280;41070;50.360;18.742;2023-12-29T07:17:23;98417.48;;;5.21;93.60
55191;BME280;41070;50.360;18.742;2023-12-29T07:20:32;98418.58;;;5.26;93.32
55191;BME280;41070;50.360;18.742;2023-12-29T07:23:40;98418.80;;;5.29;93.59
55191;BME280;41070;50.360;18.742;2023-12-29T07:26:48;98418.30;;;5.33;93.52
55191;BME280;41070;50.360;18.742;2023-12-29T07:29:55;98410.50;;;5.38;93.71
55191;BME280;41070;50.360;18.742;2023-12-29T07:33:05;98406.95;;;5.40;93.48
55191;BME280;41070;50.360;18.742;2023-12-29T07:36:13;98409.06;;;5.43;93.37
55191;BME280;41070;50.360;18.742;2023-12-29T07:39:22;98401.39;;;5.50;93.56
55191;BME280;41070;50.360;18.742;2023-12-29T07:42:32;98394.48;;;5.55;93.56
55191;BME280;41070;50.360;18.742;2023-12-29T07:45:40;98399.85;;;5.60;93.61
55191;BME280;41070;50.360;18.742;2023-12-29T07:48:51;98413.85;;;5.64;93.40
55191;BME280;41070;50.360;18.742;2023-12-29T07:51:59;98413.21;;;5.69;93.29
55191;BME280;41070;50.360;18.742;2023-12-29T07:55:08;98415.52;;;5.75;93.25
55191;BME280;41070;50.360;18.742;2023-12-29T07:58:17;98417.48;;;5.79;93.11
55191;BME280;41070;50.360;18.742;2023-12-29T08:01:28;98416.77;;;5.83;93.08
55191;BME280;41070;50.360;18.742;2023-12-29T08:07:38;98417.82;;;5.92;92.63
55191;BME280;41070;50.360;18.742;2023-12-29T08:10:26;98419.85;;;5.95;92.60
55191;BME280;41070;50.360;18.742;2023-12-29T08:13:48;98422.39;;;5.99;92.38
55191;BME280;41070;50.360;18.742;2023-12-29T08:16:49;98427.60;;;6.04;92.12
55191;BME280;41070;50.360;18.742;2023-12-29T08:19:58;98428.12;;;6.09;92.07
55191;BME280;41070;50.360;18.742;2023-12-29T08:23:08;98422.15;;;6.13;91.91
55191;BME280;41070;50.360;18.742;2023-12-29T08:26:17;98422.91;;;6.19;91.38
55191;BME280;41070;50.360;18.742;2023-12-29T08:29:47;98419.42;;;6.23;91.51
55191;BME280;41070;50.360;18.742;2023-12-29T08:32:57;98412.66;;;6.26;91.74
55191;BME280;41070;50.360;18.742;2023-12-29T08:36:06;98420.13;;;6.31;91.59
55191;BME280;41070;50.360;18.742;2023-12-29T08:42:24;98427.98;;;6.42;91.49
55191;BME280;41070;50.360;18.742;2023-12-29T08:45:32;98427.57;;;6.49;91.56
55191;BME280;41070;50.360;18.742;2023-12-29T08:48:41;98427.81;;;6.58;91.51
55191;BME280;41070;50.360;18.742;2023-12-29T08:51:54;98425.49;;;6.65;91.34
55191;BME280;41070;50.360;18.742;2023-12-29T08:55:02;98427.30;;;6.69;91.26
55191;BME280;41070;50.360;18.742;2023-12-29T08:58:13;98425.84;;;6.74;91.03
55191;BME280;41070;50.360;18.742;2023-12-29T09:04:22;98427.75;;;6.81;90.91
55191;BME280;41070;50.360;18.742;2023-12-29T09:07:50;98425.84;;;6.85;90.72
55191;BME280;41070;50.360;18.742;2023-12-29T09:10:59;98427.36;;;6.89;90.65
55191;BME280;41070;50.360;18.742;2023-12-29T09:14:07;98425.63;;;6.94;90.58
55191;BME280;41070;50.360;18.742;2023-12-29T09:17:16;98427.83;;;7.00;90.29
55191;BME280;41070;50.360;18.742;2023-12-29T09:20:24;98425.89;;;7.04;90.20
55191;BME280;41070;50.360;18.742;2023-12-29T09:23:36;98425.91;;;7.11;89.88
55191;BME280;41070;50.360;18.742;2023-12-29T09:26:42;98422.29;;;7.16;89.60
55191;BME280;41070;50.360;18.742;2023-12-29T09:29:50;98417.31;;;7.21;89.38
55191;BME280;41070;50.360;18.742;2023-12-29T09:33:03;98411.86;;;7.24;89.15
55191;BME280;41070;50.360;18.742;2023-12-29T09:39:12;98402.77;;;7.28;89.08
55191;BME280;41070;50.360;18.742;2023-12-29T09:43:01;98394.67;;;7.32;88.99
55191;BME280;41070;50.360;18.742;2023-12-29T09:46:26;98388.10;;;7.36;89.10
55191;BME280;41070;50.360;18.742;2023-12-29T09:49:37;98382.92;;;7.39;89.01
55191;BME280;41070;50.360;18.742;2023-12-29T09:53:01;98377.80;;;7.45;88.65
55191;BME280;41070;50.360;18.742;2023-12-29T09:56:13;98376.81;;;7.54;88.46
55191;BME280;41070;50.360;18.742;2023-12-29T09:59:28;98380.10;;;7.61;88.48
55191;BME280;41070;50.360;18.742;2023-12-29T10:02:58;98383.30;;;7.67;88.01
55191;BME280;41070;50.360;18.742;2023-12-29T10:06:26;98385.71;;;7.74;88.21
55191;BME280;41070;50.360;18.742;2023-12-29T10:09:41;98382.05;;;7.80;87.96
55191;BME280;41070;50.360;18.742;2023-12-29T10:13:14;98386.89;;;7.86;87.80
55191;BME280;41070;50.360;18.742;2023-12-29T10:34:34;98387.30;;;7.98;87.31
55191;BME280;41070;50.360;18.742;2023-12-29T10:37:34;98388.10;;;7.99;87.28
55191;BME280;41070;50.360;18.742;2023-12-29T10:40:43;98375.88;;;8.00;87.24
55191;BME280;41070;50.360;18.742;2023-12-29T10:43:54;98372.73;;;8.02;87.49
55191;BME280;41070;50.360;18.742;2023-12-29T10:47:52;98356.58;;;8.04;87.30
55191;BME280;41070;50.360;18.742;2023-12-29T10:51:27;98354.34;;;8.05;87.22
55191;BME280;41070;50.360;18.742;2023-12-29T10:55:03;98352.23;;;8.07;87.22
55191;BME280;41070;50.360;18.742;2023-12-29T10:57:50;98358.37;;;8.09;87.35
55191;BME280;41070;50.360;18.742;2023-12-29T11:01:13;98353.11;;;8.12;87.35
55191;BME280;41070;50.360;18.742;2023-12-29T11:04:25;98341.83;;;8.14;87.14
55191;BME280;41070;50.360;18.742;2023-12-29T11:11:11;98358.55;;;8.18;86.87
55191;BME280;41070;50.360;18.742;2023-12-29T11:14:16;98357.54;;;8.19;87.16
55191;BME280;41070;50.360;18.742;2023-12-29T11:22:01;98358.27;;;8.27;87.24
55191;BME280;41070;50.360;18.742;2023-12-29T11:28:09;98353.80;;;8.42;86.67
55191;BME280;41070;50.360;18.742;2023-12-29T11:31:21;98353.85;;;8.48;86.64
55191;BME280;41070;50.360;18.742;2023-12-29T11:38:22;98347.00;;;8.59;86.24
55191;BME280;41070;50.360;18.742;2023-12-29T11:44:45;98341.08;;;8.64;86.07
55191;BME280;41070;50.360;18.742;2023-12-29T11:47:54;98340.27;;;8.65;85.51
55191;BME280;41070;50.360;18.742;2023-12-29T11:54:06;98345.81;;;8.67;85.41
55191;BME280;41070;50.360;18.742;2023-12-29T11:57:43;98344.44;;;8.70;85.31
55191;BME280;41070;50.360;18.742;2023-12-29T12:03:47;98339.42;;;8.73;85.37
55191;BME280;41070;50.360;18.742;2023-12-29T12:13:45;98337.70;;;8.76;85.32
55191;BME280;41070;50.360;18.742;2023-12-29T12:16:53;98347.26;;;8.75;85.12
55191;BME280;41070;50.360;18.742;2023-12-29T12:19:37;98335.77;;;8.73;84.87
55191;BME280;41070;50.360;18.742;2023-12-29T12:22:25;98335.09;;;8.71;85.25
55191;BME280;41070;50.360;18.742;2023-12-29T12:25:37;98330.36;;;8.70;85.45
55191;BME280;41070;50.360;18.742;2023-12-29T12:28:51;98328.16;;;8.68;85.60
55191;BME280;41070;50.360;18.742;2023-12-29T12:31:58;98337.55;;;8.66;85.30
55191;BME280;41070;50.360;18.742;2023-12-29T12:35:13;98334.11;;;8.63;85.48
55191;BME280;41070;50.360;18.742;2023-12-29T12:41:45;98318.79;;;8.58;85.35
55191;BME280;41070;50.360;18.742;2023-12-29T12:50:55;98318.02;;;8.53;85.13
55191;BME280;41070;50.360;18.742;2023-12-29T12:54:06;98319.33;;;8.51;85.14
55191;BME280;41070;50.360;18.742;2023-12-29T12:57:16;98315.88;;;8.50;85.00
55191;BME280;41070;50.360;18.742;2023-12-29T13:03:30;98321.59;;;8.47;84.47
55191;BME280;41070;50.360;18.742;2023-12-29T13:06:39;98329.30;;;8.45;84.79
55191;BME280;41070;50.360;18.742;2023-12-29T13:09:48;98332.21;;;8.43;84.96
55191;BME280;41070;50.360;18.742;2023-12-29T13:12:59;98329.07;;;8.39;85.04
55191;BME280;41070;50.360;18.742;2023-12-29T13:22:49;98316.18;;;8.34;84.66
55191;BME280;41070;50.360;18.742;2023-12-29T13:26:02;98315.56;;;8.31;84.88
55191;BME280;41070;50.360;18.742;2023-12-29T13:29:09;98321.05;;;8.28;84.81
55191;BME280;41070;50.360;18.742;2023-12-29T13:38:51;98311.45;;;8.16;85.13
55191;BME280;41070;50.360;18.742;2023-12-29T13:41:57;98314.10;;;8.13;84.92
55191;BME280;41070;50.360;18.742;2023-12-29T13:45:07;98320.92;;;8.10;84.92
55191;BME280;41070;50.360;18.742;2023-12-29T13:48:14;98331.06;;;8.07;85.02
55191;BME280;41070;50.360;18.742;2023-12-29T13:51:16;98335.98;;;8.04;85.05
55191;BME280;41070;50.360;18.742;2023-12-29T13:54:40;98339.42;;;8.00;85.20
55191;BME280;41070;50.360;18.742;2023-12-29T14:11:44;98356.74;;;7.76;85.77
55191;BME280;41070;50.360;18.742;2023-12-29T14:14:52;98361.73;;;7.73;85.99
55191;BME280;41070;50.360;18.742;2023-12-29T14:20:54;98367.52;;;7.65;86.05
55191;BME280;41070;50.360;18.742;2023-12-29T14:27:35;98370.98;;;7.57;86.26
55191;BME280;41070;50.360;18.742;2023-12-29T14:30:44;98370.62;;;7.53;86.39
55191;BME280;41070;50.360;18.742;2023-12-29T14:33:53;98369.09;;;7.48;86.40
55191;BME280;41070;50.360;18.742;2023-12-29T14:37:01;98365.04;;;7.42;86.54
55191;BME280;41070;50.360;18.742;2023-12-29T14:40:10;98355.27;;;7.34;86.62
55191;BME280;41070;50.360;18.742;2023-12-29T14:43:18;98350.43;;;7.26;86.76
55191;BME280;41070;50.360;18.742;2023-12-29T14:46:27;98345.73;;;7.18;86.95
55191;BME280;41070;50.360;18.742;2023-12-29T14:49:17;98346.90;;;7.12;87.10
55191;BME280;41070;50.360;18.742;2023-12-29T14:51:50;98352.06;;;7.08;87.28
55191;BME280;41070;50.360;18.742;2023-12-29T14:54:44;98356.16;;;7.08;87.38
55191;BME280;41070;50.360;18.742;2023-12-29T14:58:19;98365.86;;;7.07;87.32
55191;BME280;41070;50.360;18.742;2023-12-29T15:01:07;98370.86;;;7.06;87.46
55191;BME280;41070;50.360;18.742;2023-12-29T15:04:18;98372.84;;;7.04;87.42
55191;BME280;41070;50.360;18.742;2023-12-29T15:07:16;98369.28;;;7.03;87.52
55191;BME280;41070;50.360;18.742;2023-12-29T15:10:38;98366.55;;;6.99;87.46
55191;BME280;41070;50.360;18.742;2023-12-29T15:16:40;98371.48;;;6.82;87.70
55191;BME280;41070;50.360;18.742;2023-12-29T15:29:03;98359.52;;;6.56;88.20
55191;BME280;41070;50.360;18.742;2023-12-29T15:32:17;98359.42;;;6.57;88.44
55191;BME280;41070;50.360;18.742;2023-12-29T15:35:55;98357.95;;;6.58;88.66
55191;BME280;41070;50.360;18.742;2023-12-29T15:39:16;98352.54;;;6.58;88.59
55191;BME280;41070;50.360;18.742;2023-12-29T15:42:25;98353.63;;;6.57;88.88
55191;BME280;41070;50.360;18.742;2023-12-29T15:45:33;98350.24;;;6.53;88.67
55191;BME280;41070;50.360;18.742;2023-12-29T15:48:42;98352.26;;;6.50;88.81
55191;BME280;41070;50.360;18.742;2023-12-29T15:51:52;98347.38;;;6.44;88.90
55191;BME280;41070;50.360;18.742;2023-12-29T15:55:01;98342.02;;;6.35;89.01
55191;BME280;41070;50.360;18.742;2023-12-29T16:01:44;98339.66;;;6.23;89.38
55191;BME280;41070;50.360;18.742;2023-12-29T16:05:10;98335.05;;;6.18;89.57
55191;BME280;41070;50.360;18.742;2023-12-29T16:08:19;98336.55;;;6.20;89.80
55191;BME280;41070;50.360;18.742;2023-12-29T16:11:07;98331.42;;;6.20;89.99
55191;BME280;41070;50.360;18.742;2023-12-29T16:14:15;98334.15;;;6.17;89.97
55191;BME280;41070;50.360;18.742;2023-12-29T16:17:25;98342.27;;;6.17;90.07
55191;BME280;41070;50.360;18.742;2023-12-29T16:24:06;98328.17;;;6.17;90.25
55191;BME280;41070;50.360;18.742;2023-12-29T16:27:31;98324.77;;;6.11;90.30
55191;BME280;41070;50.360;18.742;2023-12-29T16:30:41;98326.24;;;6.07;90.25
55191;BME280;41070;50.360;18.742;2023-12-29T16:37:17;98324.48;;;6.09;90.60
55191;BME280;41070;50.360;18.742;2023-12-29T16:40:47;98326.83;;;6.10;90.71
55191;BME280;41070;50.360;18.742;2023-12-29T16:43:46;98326.23;;;6.10;90.58
55191;BME280;41070;50.360;18.742;2023-12-29T16:46:32;98318.56;;;6.12;90.63
55191;BME280;41070;50.360;18.742;2023-12-29T16:49:39;98315.11;;;6.13;90.70
55191;BME280;41070;50.360;18.742;2023-12-29T16:52:50;98308.30;;;6.09;90.65
55191;BME280;41070;50.360;18.742;2023-12-29T16:56:21;98307.44;;;6.09;90.67
55191;BME280;41070;50.360;18.742;2023-12-29T16:59:20;98303.66;;;6.07;90.86
55191;BME280;41070;50.360;18.742;2023-12-29T17:02:30;98297.52;;;6.06;90.74
55191;BME280;41070;50.360;18.742;2023-12-29T17:05:18;98298.29;;;6.06;91.01
55191;BME280;41070;50.360;18.742;2023-12-29T17:08:27;98297.64;;;6.05;91.08
55191;BME280;41070;50.360;18.742;2023-12-29T17:11:35;98303.02;;;6.01;90.91
55191;BME280;41070;50.360;18.742;2023-12-29T17:14:44;98307.84;;;6.02;91.12
55191;BME280;41070;50.360;18.742;2023-12-29T17:17:52;98311.20;;;6.02;91.23
55191;BME280;41070;50.360;18.742;2023-12-29T17:21:23;98312.23;;;6.03;91.12
55191;BME280;41070;50.360;18.742;2023-12-29T17:24:14;98321.95;;;6.04;91.21
55191;BME280;41070;50.360;18.742;2023-12-29T17:27:27;98317.23;;;6.05;91.39
55191;BME280;41070;50.360;18.742;2023-12-29T17:30:38;98323.09;;;6.07;91.40
55191;BME280;41070;50.360;18.742;2023-12-29T17:33:46;98315.73;;;6.09;91.56
55191;BME280;41070;50.360;18.742;2023-12-29T17:36:55;98314.95;;;6.11;91.41
55191;BME280;41070;50.360;18.742;2023-12-29T17:40:08;98312.25;;;6.14;91.72
55191;BME280;41070;50.360;18.742;2023-12-29T17:43:17;98322.61;;;6.17;91.56
55191;BME280;41070;50.360;18.742;2023-12-29T17:46:25;98322.76;;;6.19;91.79
55191;BME280;41070;50.360;18.742;2023-12-29T17:49:40;98322.16;;;6.20;91.78
55191;BME280;41070;50.360;18.742;2023-12-29T17:53:18;98324.44;;;6.22;91.62
55191;BME280;41070;50.360;18.742;2023-12-29T17:56:28;98327.58;;;6.23;91.65
55191;BME280;41070;50.360;18.742;2023-12-29T17:59:49;98332.08;;;6.22;91.56
55191;BME280;41070;50.360;18.742;2023-12-29T18:03:22;98335.15;;;6.21;91.43
55191;BME280;41070;50.360;18.742;2023-12-29T18:06:05;98335.43;;;6.18;91.61
55191;BME280;41070;50.360;18.742;2023-12-29T18:09:21;98335.49;;;6.16;91.99
55191;BME280;41070;50.360;18.742;2023-12-29T18:12:09;98339.80;;;6.17;92.06
55191;BME280;41070;50.360;18.742;2023-12-29T18:15:44;98342.04;;;6.19;91.92
55191;BME280;41070;50.360;18.742;2023-12-29T18:18:36;98343.36;;;6.17;92.21
55191;BME280;41070;50.360;18.742;2023-12-29T18:22:06;98345.59;;;6.16;92.05
55191;BME280;41070;50.360;18.742;2023-12-29T18:25:20;98344.72;;;6.15;92.26
55191;BME280;41070;50.360;18.742;2023-12-29T18:28:07;98342.88;;;6.15;92.15
55191;BME280;41070;50.360;18.742;2023-12-29T18:31:00;98344.75;;;6.14;92.32
55191;BME280;41070;50.360;18.742;2023-12-29T18:34:19;98345.67;;;6.12;92.23
55191;BME280;41070;50.360;18.742;2023-12-29T18:37:56;98350.14;;;6.10;92.10
55191;BME280;41070;50.360;18.742;2023-12-29T18:41:24;98347.46;;;6.07;92.25
55191;BME280;41070;50.360;18.742;2023-12-29T18:48:09;98354.77;;;6.12;92.58
55191;BME280;41070;50.360;18.742;2023-12-29T18:57:09;98336.70;;;6.20;92.43
55191;BME280;41070;50.360;18.742;2023-12-29T19:00:19;98327.85;;;6.20;92.45
55191;BME280;41070;50.360;18.742;2023-12-29T19:03:09;98323.52;;;6.20;92.32
55191;BME280;41070;50.360;18.742;2023-12-29T19:06:44;98320.16;;;6.20;92.58
55191;BME280;41070;50.360;18.742;2023-12-29T19:09:30;98323.58;;;6.20;92.63
55191;BME280;41070;50.360;18.742;2023-12-29T19:12:37;98325.42;;;6.20;92.55
55191;BME280;41070;50.360;18.742;2023-12-29T19:15:23;98321.31;;;6.20;92.83
55191;BME280;41070;50.360;18.742;2023-12-29T19:18:34;98321.16;;;6.20;92.70
55191;BME280;41070;50.360;18.742;2023-12-29T19:21:41;98321.85;;;6.20;92.77
55191;BME280;41070;50.360;18.742;2023-12-29T19:28:38;98318.23;;;6.22;92.94
55191;BME280;41070;50.360;18.742;2023-12-29T19:35:14;98307.52;;;6.27;92.91
55191;BME280;41070;50.360;18.742;2023-12-29T19:38:51;98309.76;;;6.26;92.96
55191;BME280;41070;50.360;18.742;2023-12-29T19:42:20;98309.44;;;6.25;93.22
55191;BME280;41070;50.360;18.742;2023-12-29T19:45:28;98311.22;;;6.26;93.31
55191;BME280;41070;50.360;18.742;2023-12-29T19:48:40;98310.00;;;6.28;93.22
55191;BME280;41070;50.360;18.742;2023-12-29T19:51:47;98307.02;;;6.28;93.33